Flight Track Log - Related Links

Times and Time Zones

All times are in EDT time to prevent confusion due to time zone crossing. See the ASQ4209 flight status page for this flight to view local times or setup timezone preferences in your user account.

Time Position Orientation Groundspeed Altitude Reporting Facility
EDT Latitude Longitude Course Direction KTS MPH feet Rate Location/Type
Wed 02:52:26 PM 42.8086 -73.8381 330° Northwest 196 226 3,500  Level Boston Center
Wed 02:53:39 PM 42.8578 -73.9131 312° West 241 277 6,200 2,887 Climbing Boston Center
Wed 02:54:00 PM 42.8000 -74.1510 270° West  Level FlightAware
Wed 02:54:39 PM 42.9025 -73.9878 309° West 236 272 9,900  Level Boston Center
Wed 02:55:00 PM 42.8207 -74.2701 285° West  Level FlightAware
Wed 02:55:39 PM 42.9475 -74.0511 314° West 242 278 11,700  Level Boston Center
Wed 02:56:00 PM 42.8427 -74.3894 283° West  Level FlightAware
Wed 02:56:51 PM 43.0089 -74.1381 314° West 272 313 13,500  Level Boston Center
Wed 02:57:51 PM 43.0294 -74.2778 281° West 305 351 15,500 1,750 Climbing Boston Center
Wed 02:58:51 PM 43.0400 -74.4058 276° West 326 375 17,000 1,864 Climbing Boston Center
Wed 03:00:03 PM 43.0517 -74.5597 276° West 342 394 19,600 1,955 Climbing Boston Center
Wed 03:01:03 PM 43.0597 -74.6850 275° West 342 394 21,300 1,800 Climbing Boston Center
Wed 03:02:03 PM 43.0681 -74.7906 276° West 330 380 23,200 1,900 Climbing Boston Center
Wed 03:03:03 PM 43.0761 -74.9103 275° West 330 380 25,100 1,750 Climbing Boston Center
Wed 03:04:03 PM 43.0839 -75.0272 275° West 325 374 26,700 1,100 Climbing Boston Center
Wed 03:05:03 PM 43.0933 -75.1528 276° West 325 374 27,300 1,150 Climbing Boston Center
Wed 03:06:03 PM 43.1028 -75.2811 276° West 336 387 29,000 1,750 Climbing Boston Center
Wed 03:07:03 PM 43.1081 -75.4064 273° West 336 387 30,800 1,450 Climbing Boston Center
Wed 03:08:03 PM 43.1172 -75.5264 276° West 331 381 31,900 600 Climbing Boston Center
Wed 03:09:03 PM 43.1283 -75.6578 277° West 338 389 32,000 50 Climbing Boston Center
Wed 03:10:03 PM 43.1367 -75.8006 275° West 360 414 32,000  Level Boston Center
Wed 03:11:03 PM 43.1447 -75.9433 274° West 372 428 32,000  Level Boston Center
Wed 03:12:03 PM 43.1547 -76.0892 275° West 386 444 32,000  Level Boston Center
Wed 03:13:03 PM 43.1522 -76.2372 269° West 391 450 32,000  Level Boston Center
Wed 03:15:08 PM 43.0508 -76.5569 247° West 400 460 32,000  Level Cleveland Center
Wed 03:16:08 PM 43.0036 -76.6992 246° West 411 473 32,000  Level Cleveland Center
Wed 03:17:08 PM 42.9619 -76.8294 246° West 411 473 32,000  Level Cleveland Center
Wed 03:18:08 PM 42.9183 -76.9597 245° Southwest 417 480 32,000  Level Cleveland Center
Wed 03:19:08 PM 42.8528 -77.1336 243° Southwest 432 497 32,000  Level Cleveland Center
Wed 03:20:08 PM 42.7942 -77.2753 241° Southwest 438 504 32,000  Level Cleveland Center
Wed 03:21:08 PM 42.7336 -77.4172 240° Southwest 438 504 32,000  Level Cleveland Center
Wed 03:22:08 PM 42.6750 -77.5614 241° Southwest 438 504 32,000  Level Cleveland Center
Wed 03:23:08 PM 42.6117 -77.6997 238° Southwest 438 504 32,000  Level Cleveland Center
Wed 03:24:08 PM 42.5567 -77.8292 240° Southwest 433 498 32,000  Level Cleveland Center
Wed 03:25:08 PM 42.4992 -77.9642 240° Southwest 433 498 32,000  Level Cleveland Center
Wed 03:26:08 PM 42.4378 -78.1044 239° Southwest 433 498 32,000  Level Cleveland Center
Wed 03:27:08 PM 42.3719 -78.2533 239° Southwest 433 498 32,000  Level Cleveland Center
Wed 03:28:08 PM 42.3161 -78.3817 240° Southwest 433 498 32,000  Level Cleveland Center
Wed 03:29:08 PM 42.2542 -78.5186 239° Southwest 433 498 32,000  Level Cleveland Center
Wed 03:30:08 PM 42.1939 -78.6578 240° Southwest 433 498 32,000  Level Cleveland Center
Wed 03:31:08 PM 42.1317 -78.7942 238° Southwest 433 498 32,000 -300 Level Cleveland Center
Wed 03:32:08 PM 42.0692 -78.9356 239° Southwest 433 498 31,400 -1,200 Descending Cleveland Center
Wed 03:33:08 PM 42.0044 -79.0769 238° Southwest 433 498 29,600 -1,700 Descending Cleveland Center
Wed 03:34:08 PM 41.9456 -79.2014 238° Southwest 423 487 28,000 -1,900 Descending Cleveland Center
Wed 03:35:08 PM 41.8844 -79.3392 239° Southwest 411 473 25,800 -2,050 Descending Cleveland Center
Wed 03:36:08 PM 41.8314 -79.4572 239° Southwest 398 458 23,900 -1,750 Descending Cleveland Center
Wed 03:37:08 PM 41.7764 -79.5753 238° Southwest 386 444 22,300 -950 Descending Cleveland Center
Wed 03:38:08 PM 41.7292 -79.6844 240° Southwest 386 444 22,000 -150 Descending Cleveland Center
Wed 03:39:08 PM 41.6717 -79.7992 236° Southwest 381 438 22,000  Level Cleveland Center
Wed 03:40:08 PM 41.6142 -79.9278 239° Southwest 373 429 22,000  Level Cleveland Center
Wed 03:41:08 PM 41.5606 -80.0392 237° Southwest 367 422 22,000  Level Cleveland Center
Wed 03:42:08 PM 41.5089 -80.1506 238° Southwest 367 422 22,000  Level Cleveland Center
Wed 03:43:08 PM 41.4656 -80.2672 244° Southwest 367 422 22,000  Level Cleveland Center
Wed 03:44:08 PM 41.4658 -80.3919 270° West 335 386 22,000 -700 Level Cleveland Center
Wed 03:45:08 PM 41.4764 -80.5167 276° West 340 391 20,600 -1,700 Descending Cleveland Center
Wed 03:46:08 PM 41.4847 -80.6442 275° West 355 409 18,600 -2,050 Descending Cleveland Center
Wed 03:47:08 PM 41.4928 -80.7633 275° West 334 384 16,500 -1,950 Descending Cleveland Center
Wed 03:48:08 PM 41.4989 -80.8797 274° West 329 379 14,700 -1,879 Descending Cleveland Center
Wed 03:48:47 PM 41.5028 -80.9631 274° West 320 368 13,400 -1,895 Descending Cleveland Center
Wed 03:49:05 PM 41.5047 -80.9878 276° West 318 366 12,900 -2,000 Descending Cleveland Center
Wed 03:50:08 PM 41.5128 -81.1072 275° West 316 364 10,700 -1,426 Descending Cleveland Center
Wed 03:51:07 PM 41.5142 -81.2153 271° West 282 325 10,000 -750 Descending Cleveland Center
Wed 03:52:08 PM 41.5158 -81.3125 271° West 248 285 9,200 -1,289 Descending Cleveland Center
Wed 03:53:08 PM 41.5172 -81.3983 271° West 251 289 7,400 -1,850 Descending Cleveland Center
Wed 03:54:08 PM 41.5164 -81.4900 269° West 251 289 5,500 -1,623 Descending Cleveland Center
Wed 03:55:10 PM 41.5178 -81.5925 271° West 249 287 4,100 -850 Descending Cleveland Center
Wed 03:56:08 PM 41.5172 -81.6647 269° West 251 289 3,800 -559 Descending Cleveland Center
Wed 03:57:08 PM 41.4894 -81.7308 241° Southwest 220 253 3,000 -800 Descending Cleveland Center

Login

Don't have an account? Register now (free) for customized features, flight alerts, and more!